createdAt,value
2019-02-11T00:01:38.278Z,0.63
2019-02-11T00:04:19.425Z,0.60
2019-02-11T00:06:59.757Z,0.60
2019-02-11T00:09:40.394Z,0.60
2019-02-11T00:12:20.972Z,0.60
2019-02-11T00:15:01.678Z,0.50
2019-02-11T00:17:42.446Z,0.60
2019-02-11T00:20:23.677Z,0.60
2019-02-11T00:23:04.153Z,0.70
2019-02-11T00:25:44.542Z,0.60
2019-02-11T00:28:25.209Z,0.70
2019-02-11T00:31:05.772Z,1.13
2019-02-11T00:33:46.385Z,1.40
2019-02-11T00:36:26.731Z,1.40
2019-02-11T00:39:07.186Z,1.70
2019-02-11T00:41:47.731Z,2.40
2019-02-11T00:44:28.498Z,3.03
2019-02-11T00:47:08.949Z,2.73
2019-02-11T00:49:49.381Z,3.33
2019-02-11T00:52:29.980Z,3.20
2019-02-11T00:55:11.186Z,3.33
2019-02-11T00:57:51.574Z,2.70
2019-02-11T01:00:32.062Z,2.93
2019-02-11T01:03:12.931Z,3.73
2019-02-11T01:05:53.844Z,4.93
2019-02-11T01:08:34.485Z,4.10
2019-02-11T01:11:15.284Z,4.53
2019-02-11T01:13:56.366Z,4.13
2019-02-11T01:16:37.074Z,4.60
2019-02-11T01:19:17.687Z,5.07
2019-02-11T01:21:58.394Z,4.63
2019-02-11T01:24:38.941Z,6.33
2019-02-11T01:27:19.566Z,4.30
2019-02-11T01:30:00.266Z,4.90
2019-02-11T01:32:40.757Z,4.30
2019-02-11T01:35:21.229Z,6.50
2019-02-11T01:38:01.805Z,5.70
2019-02-11T01:40:42.398Z,4.77
2019-02-11T01:43:22.867Z,5.20
2019-02-11T01:46:03.521Z,4.07
2019-02-11T01:48:44.315Z,4.53
2019-02-11T01:51:24.820Z,5.00
2019-02-11T01:54:05.149Z,4.63
2019-02-11T01:56:46.167Z,6.70
2019-02-11T01:59:26.650Z,3.80
2019-02-11T02:02:06.985Z,3.97
2019-02-11T02:04:47.597Z,3.57
2019-02-11T02:07:28.035Z,3.93
2019-02-11T02:10:08.827Z,4.27
2019-02-11T02:12:49.923Z,3.80
2019-02-11T02:15:30.520Z,4.17
2019-02-11T02:18:10.919Z,3.37
2019-02-11T02:20:51.470Z,4.40
2019-02-11T02:23:32.104Z,3.90
2019-02-11T02:26:12.591Z,4.00
2019-02-11T02:28:53.226Z,3.10
2019-02-11T02:31:33.995Z,3.80
2019-02-11T02:34:15.129Z,4.33
2019-02-11T02:36:55.874Z,3.60
2019-02-11T02:39:36.341Z,4.03
2019-02-11T02:42:17.147Z,3.70
2019-02-11T02:44:57.615Z,3.50
2019-02-11T02:47:38.419Z,3.13
2019-02-11T02:50:19.167Z,3.00
2019-02-11T02:52:59.486Z,2.33
2019-02-11T02:55:40.185Z,3.33
2019-02-11T02:58:20.726Z,3.17
2019-02-11T03:01:01.174Z,2.87
2019-02-11T03:03:41.966Z,3.10
2019-02-11T03:06:22.307Z,4.10
2019-02-11T03:09:03.728Z,3.83
2019-02-11T03:11:44.354Z,2.87
2019-02-11T03:14:24.909Z,4.70
2019-02-11T03:17:05.487Z,3.63
2019-02-11T03:19:46.267Z,4.33
2019-02-11T03:22:26.938Z,4.30
2019-02-11T03:25:07.595Z,3.90
2019-02-11T03:27:47.947Z,2.93
2019-02-11T03:30:28.573Z,4.10
2019-02-11T03:33:09.272Z,5.20
2019-02-11T03:35:49.969Z,4.23
2019-02-11T03:38:30.731Z,4.43
2019-02-11T03:41:11.513Z,4.30
2019-02-11T03:43:51.977Z,4.03
2019-02-11T03:46:32.682Z,4.50
2019-02-11T03:49:13.403Z,5.27
2019-02-11T03:51:54.363Z,4.10
2019-02-11T03:54:34.951Z,5.03
2019-02-11T03:57:15.572Z,5.30
2019-02-11T03:59:56.746Z,6.47
2019-02-11T04:02:37.252Z,6.53
2019-02-11T04:05:17.656Z,6.00
2019-02-11T04:07:58.503Z,5.87
2019-02-11T04:10:38.860Z,6.03
2019-02-11T04:13:19.247Z,5.50
2019-02-11T04:16:00.326Z,5.60
2019-02-11T04:18:41.349Z,5.10
2019-02-11T04:21:22.157Z,4.10
2019-02-11T04:24:03.140Z,4.40
2019-02-11T04:26:43.681Z,4.60
2019-02-11T04:29:24.225Z,4.77
2019-02-11T04:32:04.572Z,5.47
2019-02-11T04:34:45.517Z,4.37
2019-02-11T04:37:26.626Z,2.70
2019-02-11T04:40:07.386Z,4.83
2019-02-11T04:42:48.541Z,3.80
2019-02-11T04:45:29.470Z,2.87
2019-02-11T04:48:09.931Z,2.47
2019-02-11T04:50:50.728Z,2.70
2019-02-11T04:53:31.174Z,3.10
2019-02-11T04:56:12.039Z,2.50
2019-02-11T04:58:52.401Z,3.13
2019-02-11T05:01:32.770Z,3.00
2019-02-11T05:04:13.410Z,3.30
2019-02-11T05:06:53.962Z,2.80
2019-02-11T05:09:34.467Z,1.70
2019-02-11T05:12:14.849Z,2.37
2019-02-11T05:14:55.377Z,3.07
2019-02-11T05:17:36.362Z,2.70
2019-02-11T05:20:17.314Z,2.67
2019-02-11T05:22:57.890Z,2.47
2019-02-11T05:25:38.805Z,2.13
2019-02-11T05:28:19.754Z,1.70
2019-02-11T05:31:00.207Z,2.53
2019-02-11T05:33:40.924Z,2.20
2019-02-11T05:36:21.538Z,2.27
2019-02-11T05:39:02.227Z,2.77
2019-02-11T05:41:42.885Z,2.33
2019-02-11T05:44:23.556Z,2.80
2019-02-11T05:47:04.183Z,2.87
2019-02-11T05:49:45.352Z,2.70
2019-02-11T05:52:26.021Z,3.00
2019-02-11T05:55:06.725Z,3.67
2019-02-11T05:57:47.415Z,2.50
2019-02-11T06:00:28.290Z,4.57
2019-02-11T06:03:09.695Z,2.93
2019-02-11T06:05:50.154Z,2.97
2019-02-11T06:08:30.900Z,2.50
2019-02-11T06:11:11.471Z,2.23
2019-02-11T06:13:52.247Z,2.50
2019-02-11T06:16:32.957Z,4.27
2019-02-11T06:19:13.862Z,1.63
2019-02-11T06:21:54.275Z,2.53
2019-02-11T06:24:35.014Z,3.50
2019-02-11T06:27:15.686Z,2.37
2019-02-11T06:29:56.586Z,1.93
2019-02-11T06:32:37.084Z,1.80
2019-02-11T06:35:17.666Z,1.70
2019-02-11T06:37:58.383Z,1.67
2019-02-11T06:40:39.309Z,2.30
2019-02-11T06:43:19.849Z,2.17
2019-02-11T06:46:00.311Z,2.07
2019-02-11T06:48:41.089Z,2.07
2019-02-11T06:51:21.763Z,2.00
2019-02-11T06:54:02.759Z,1.97
2019-02-11T06:56:43.418Z,3.07
2019-02-11T06:59:24.049Z,3.70
2019-02-11T07:02:04.743Z,1.33
2019-02-11T07:04:45.613Z,2.83
2019-02-11T07:07:26.399Z,1.90
2019-02-11T07:10:06.100Z,2.93
2019-02-11T07:12:47.105Z,2.33
2019-02-11T07:15:27.469Z,2.53
2019-02-11T07:18:08.063Z,1.90
2019-02-11T07:20:48.907Z,1.60
2019-02-11T07:23:29.524Z,1.57
2019-02-11T07:26:10.270Z,2.23
2019-02-11T07:28:51.318Z,2.17
2019-02-11T07:31:31.901Z,1.73
2019-02-11T07:34:12.611Z,4.40
2019-02-11T07:36:53.750Z,2.03
2019-02-11T07:39:34.210Z,2.50
2019-02-11T07:48:12.883Z,2.20
2019-02-11T07:50:53.619Z,1.87
2019-02-11T07:53:34.222Z,1.57
2019-02-11T07:56:14.971Z,1.77
2019-02-11T07:58:55.718Z,2.37
2019-02-11T08:01:36.448Z,1.40
2019-02-11T08:04:17.410Z,2.03
2019-02-11T08:06:57.903Z,2.27
2019-02-11T08:09:38.813Z,1.87
2019-02-11T08:12:20.055Z,1.73
2019-02-11T08:15:01.146Z,1.40
2019-02-11T08:17:41.786Z,1.97
2019-02-11T08:20:22.382Z,3.00
2019-02-11T08:23:11.080Z,1.53
2019-02-11T08:25:45.835Z,2.00
2019-02-11T08:28:26.386Z,2.00
2019-02-11T08:31:07.075Z,2.03
2019-02-11T08:33:48.340Z,1.50
2019-02-11T08:36:29.140Z,1.50
2019-02-11T08:39:10.341Z,1.87
2019-02-11T08:41:51.235Z,1.90
2019-02-11T08:44:33.563Z,1.90
2019-02-11T08:47:14.416Z,2.03
2019-02-11T08:49:54.949Z,2.50
2019-02-11T08:52:35.526Z,1.80
2019-02-11T08:55:16.422Z,2.63
2019-02-11T08:57:57.204Z,2.37
2019-02-11T09:00:37.750Z,2.57
2019-02-11T09:03:18.647Z,2.50
2019-02-11T09:05:59.686Z,2.00
2019-02-11T09:08:40.763Z,2.37
2019-02-11T09:11:21.006Z,2.53
2019-02-11T09:14:01.339Z,4.50
2019-02-11T09:16:42.151Z,3.00
2019-02-11T09:19:23.253Z,2.97
2019-02-11T09:22:07.673Z,2.43
2019-02-11T09:24:46.438Z,2.73
2019-02-11T09:27:27.075Z,2.40
2019-02-11T09:30:07.539Z,2.70
2019-02-11T09:32:48.498Z,3.17
2019-02-11T09:35:29.602Z,2.37
2019-02-11T09:38:10.328Z,3.23
2019-02-11T09:40:51.555Z,2.60
2019-02-11T09:43:31.978Z,3.60
2019-02-11T09:46:12.758Z,5.30
2019-02-11T09:48:53.690Z,3.80
2019-02-11T09:51:34.029Z,3.37
2019-02-11T09:54:14.726Z,4.30
2019-02-11T09:56:55.539Z,3.63
2019-02-11T09:59:36.634Z,3.50
2019-02-11T10:02:17.147Z,3.47
2019-02-11T10:04:58.033Z,4.67
2019-02-11T10:07:38.819Z,3.70
2019-02-11T10:10:19.238Z,3.93
2019-02-11T10:12:59.853Z,4.60
2019-02-11T10:15:40.186Z,4.00
2019-02-11T10:18:20.725Z,3.53
2019-02-11T10:21:01.598Z,4.03
2019-02-11T10:23:42.428Z,3.87
2019-02-11T10:26:23.601Z,3.67
2019-02-11T10:29:04.117Z,3.83
2019-02-11T10:31:44.700Z,4.10
2019-02-11T10:34:25.122Z,4.20
2019-02-11T10:37:05.869Z,4.57
2019-02-11T10:39:46.693Z,4.23
2019-02-11T10:42:27.350Z,4.00
2019-02-11T10:45:07.923Z,4.97
2019-02-11T10:47:48.480Z,4.37
2019-02-11T10:50:29.498Z,3.80
2019-02-11T10:53:10.593Z,4.77
2019-02-11T10:55:51.606Z,4.33
2019-02-11T10:58:32.437Z,4.37
2019-02-11T11:01:13.448Z,6.43
2019-02-11T11:03:54.499Z,5.73
2019-02-11T11:06:35.298Z,5.10
2019-02-11T11:09:16.231Z,4.93
2019-02-11T11:11:57.587Z,4.40
2019-02-11T11:14:37.867Z,5.30
2019-02-11T11:17:18.865Z,3.77
2019-02-11T11:19:59.314Z,4.57
2019-02-11T11:22:40.362Z,4.93
2019-02-11T11:25:21.015Z,7.10
2019-02-11T11:28:01.890Z,5.77
2019-02-11T11:30:42.907Z,5.07
2019-02-11T11:33:23.252Z,5.23
2019-02-11T11:36:03.956Z,5.60
2019-02-11T11:38:44.513Z,7.40
2019-02-11T11:41:25.639Z,5.97
2019-02-11T11:44:06.245Z,5.07
2019-02-11T11:46:47.319Z,4.67
2019-02-11T11:49:28.822Z,4.90
2019-02-11T11:52:09.302Z,6.70
2019-02-11T11:54:49.912Z,6.60
2019-02-11T11:57:30.924Z,5.80
2019-02-11T12:00:11.673Z,5.40
2019-02-11T12:03:02.238Z,7.80
2019-02-11T12:05:34.949Z,7.23
2019-02-11T12:08:15.832Z,5.50
2019-02-11T12:10:56.797Z,4.97
2019-02-11T12:13:37.895Z,5.40
2019-02-11T12:16:18.766Z,5.73
2019-02-11T12:18:59.493Z,4.00
2019-02-11T12:21:39.878Z,4.43
2019-02-11T12:24:20.359Z,4.20
2019-02-11T12:27:01.081Z,4.53
2019-02-11T12:29:41.916Z,3.23
2019-02-11T12:32:22.710Z,3.40
2019-02-11T12:35:03.569Z,4.63
2019-02-11T12:37:44.036Z,5.03
2019-02-11T12:40:24.729Z,3.57
2019-02-11T12:43:05.157Z,4.60
2019-02-11T12:45:45.633Z,2.90
2019-02-11T12:48:26.387Z,3.40
2019-02-11T12:51:07.057Z,4.50
2019-02-11T12:53:47.730Z,5.73
2019-02-11T12:56:28.486Z,3.33
2019-02-11T12:59:09.180Z,4.10
2019-02-11T13:01:49.998Z,3.40
2019-02-11T13:04:30.931Z,2.97
2019-02-11T13:07:11.488Z,3.83
2019-02-11T13:09:52.186Z,4.57
2019-02-11T13:12:32.805Z,2.87
2019-02-11T13:15:33.816Z,4.87
2019-02-11T13:17:56.385Z,3.57
2019-02-11T13:20:37.098Z,3.67
2019-02-11T13:23:18.897Z,2.90
2019-02-11T13:25:59.641Z,2.60
2019-02-11T13:28:40.250Z,3.20
2019-02-11T13:31:20.662Z,2.80
2019-02-11T13:34:01.379Z,3.20
2019-02-11T13:36:42.491Z,2.67
2019-02-11T13:39:23.266Z,2.70
2019-02-11T13:42:03.926Z,3.43
2019-02-11T13:44:44.514Z,2.60
2019-02-11T13:47:24.958Z,2.90
2019-02-11T13:50:05.780Z,2.03
2019-02-11T13:52:46.732Z,2.80
2019-02-11T13:55:30.499Z,2.37
2019-02-11T13:58:10.203Z,2.93
2019-02-11T14:00:51.169Z,1.80
2019-02-11T14:03:31.832Z,3.27
2019-02-11T14:06:12.540Z,2.17
2019-02-11T14:08:53.450Z,1.77
2019-02-11T14:11:34.298Z,1.70
2019-02-11T14:14:14.937Z,2.13
2019-02-11T14:16:55.679Z,1.60
2019-02-11T14:19:36.744Z,2.37
2019-02-11T14:22:17.643Z,2.10
2019-02-11T14:24:58.073Z,2.90
2019-02-11T14:27:38.551Z,4.13
2019-02-11T14:30:19.240Z,3.10
2019-02-11T14:32:59.687Z,3.70
2019-02-11T14:35:40.339Z,7.60
2019-02-11T14:38:21.125Z,4.27
2019-02-11T14:41:02.343Z,4.03
2019-02-11T14:43:43.024Z,3.10
2019-02-11T14:46:23.476Z,4.30
2019-02-11T14:49:03.987Z,3.80
2019-02-11T14:51:44.940Z,4.50
2019-02-11T14:54:24.114Z,4.57
2019-02-11T14:57:12.132Z,6.93
2019-02-11T15:00:00.227Z,5.13
2019-02-11T15:02:48.372Z,4.37
2019-02-11T15:05:36.351Z,4.23
2019-02-11T15:08:24.317Z,4.23
2019-02-11T15:11:05.442Z,3.97
2019-02-11T15:13:46.382Z,3.73
2019-02-11T15:16:27.012Z,4.90
2019-02-11T15:19:07.932Z,3.83
2019-02-11T15:21:49.104Z,3.60
2019-02-11T15:24:29.713Z,3.90
2019-02-11T15:27:17.119Z,5.00
2019-02-11T15:29:53.349Z,6.00
2019-02-11T15:32:34.582Z,8.17
2019-02-11T15:35:15.027Z,6.93
2019-02-11T15:37:55.751Z,5.57
2019-02-11T15:40:37.325Z,3.60
2019-02-11T15:43:18.795Z,8.17
2019-02-11T15:45:59.797Z,6.33
2019-02-11T15:48:43.061Z,4.40
2019-02-11T15:51:22.710Z,6.10
2019-02-11T15:54:03.330Z,6.20
2019-02-11T15:56:44.005Z,5.50
2019-02-11T15:59:24.642Z,10.13
2019-02-11T16:02:05.175Z,6.93
2019-02-11T16:04:45.834Z,19.90
2019-02-11T16:07:26.639Z,4.97
2019-02-11T16:10:07.146Z,6.07
2019-02-11T16:12:47.813Z,6.67
2019-02-11T16:15:29.110Z,5.70
2019-02-11T16:18:09.723Z,7.20
2019-02-11T16:20:50.239Z,10.90
2019-02-11T16:23:31.775Z,4.93
2019-02-11T16:26:12.192Z,3.83
2019-02-11T16:28:53.021Z,4.43
2019-02-11T16:31:33.392Z,4.10
2019-02-11T16:34:14.079Z,4.17
2019-02-11T16:36:54.703Z,4.53
2019-02-11T16:39:35.338Z,3.90
2019-02-11T16:42:16.015Z,3.97
2019-02-11T16:44:56.346Z,4.13
2019-02-11T16:47:37.114Z,4.80
2019-02-11T16:50:17.872Z,3.80
2019-02-11T16:52:58.446Z,3.50
2019-02-11T16:55:39.314Z,3.70
2019-02-11T16:58:19.866Z,5.40
2019-02-11T17:01:00.944Z,4.60
2019-02-11T17:03:41.815Z,5.30
2019-02-11T17:06:22.334Z,5.50
2019-02-11T17:09:02.987Z,4.40
2019-02-11T17:11:43.294Z,4.00
2019-02-11T17:14:23.919Z,3.90
2019-02-11T17:17:04.343Z,4.40
2019-02-11T17:19:45.191Z,5.10
2019-02-11T17:22:26.212Z,5.60
2019-02-11T17:25:06.839Z,4.37
2019-02-11T17:27:47.986Z,4.30
2019-02-11T17:30:28.544Z,4.60
2019-02-11T17:33:09.383Z,4.83
2019-02-11T17:35:50.486Z,5.17
2019-02-11T17:38:31.266Z,5.10
2019-02-11T17:41:11.924Z,4.77
2019-02-11T17:43:52.767Z,5.17
2019-02-11T17:46:33.582Z,5.13
2019-02-11T17:49:17.813Z,4.70
2019-02-11T17:51:56.697Z,4.33
2019-02-11T17:54:37.533Z,5.70
2019-02-11T17:57:18.418Z,4.67
2019-02-11T17:59:58.961Z,5.07
2019-02-11T18:02:39.658Z,3.93
2019-02-11T18:05:20.552Z,3.63
2019-02-11T18:08:01.550Z,4.80
2019-02-11T18:10:42.358Z,4.30
2019-02-11T18:13:23.203Z,4.07
2019-02-11T18:16:03.809Z,5.60
2019-02-11T18:18:44.626Z,4.23
2019-02-11T18:21:25.578Z,3.27
2019-02-11T18:24:06.416Z,4.27
2019-02-11T18:26:46.979Z,4.27
2019-02-11T18:29:27.839Z,4.23
2019-02-11T18:32:08.723Z,3.53
2019-02-11T18:34:49.061Z,4.37
2019-02-11T18:37:30.174Z,3.70
2019-02-11T18:40:12.024Z,3.77
2019-02-11T18:42:53.602Z,4.40
2019-02-11T18:45:34.641Z,3.30
2019-02-11T18:48:15.334Z,3.50
2019-02-11T18:50:56.050Z,3.53
2019-02-11T18:53:36.706Z,3.90
2019-02-11T18:56:17.283Z,5.37
2019-02-11T18:58:58.207Z,3.00
2019-02-11T19:01:38.742Z,4.33
2019-02-11T19:04:19.800Z,3.80
2019-02-11T19:07:01.054Z,5.10
2019-02-11T19:09:41.853Z,3.50
2019-02-11T19:12:22.495Z,5.07
2019-02-11T19:15:02.851Z,4.13
2019-02-11T19:17:43.555Z,3.50
2019-02-11T19:20:24.386Z,3.73
2019-02-11T19:23:05.097Z,3.33
2019-02-11T19:25:46.200Z,4.10
2019-02-11T19:28:26.589Z,4.13
2019-02-11T19:31:07.370Z,3.77
2019-02-11T19:33:48.038Z,3.40
2019-02-11T19:36:28.882Z,3.20
2019-02-11T19:39:10.109Z,3.40
2019-02-11T19:41:50.964Z,3.73
2019-02-11T19:44:31.409Z,4.33
2019-02-11T19:47:12.096Z,4.20
2019-02-11T19:49:52.579Z,4.77
2019-02-11T19:52:33.191Z,3.13
2019-02-11T19:55:13.653Z,2.97
2019-02-11T19:57:54.204Z,3.20
2019-02-11T20:00:34.996Z,3.73
2019-02-11T20:03:16.029Z,3.77
2019-02-11T20:05:56.935Z,3.87
2019-02-11T20:08:38.124Z,3.83
2019-02-11T20:11:18.805Z,3.57
2019-02-11T20:13:59.766Z,3.80
2019-02-11T20:16:40.470Z,5.17
2019-02-11T20:19:21.131Z,3.43
2019-02-11T20:22:01.931Z,2.90
2019-02-11T20:24:42.306Z,3.70
2019-02-11T20:27:22.790Z,3.57
2019-02-11T20:30:03.310Z,4.20
2019-02-11T20:32:44.278Z,2.77
2019-02-11T20:35:25.519Z,3.97
2019-02-11T20:38:06.118Z,3.80
2019-02-11T20:40:47.281Z,3.37
2019-02-11T20:43:28.078Z,2.50
2019-02-11T20:46:08.570Z,3.20
2019-02-11T20:48:49.338Z,4.07
2019-02-11T20:51:30.014Z,3.10
2019-02-11T20:54:11.118Z,2.33
2019-02-11T20:56:51.667Z,2.23
2019-02-11T20:59:32.050Z,3.40
2019-02-11T21:02:12.824Z,3.07
2019-02-11T21:04:53.617Z,2.97
2019-02-11T21:07:34.392Z,2.67
2019-02-11T21:10:15.470Z,2.40
2019-02-11T21:12:56.578Z,2.80
2019-02-11T21:15:37.207Z,2.23
2019-02-11T21:18:18.140Z,2.00
2019-02-11T21:20:58.854Z,2.23
2019-02-11T21:23:39.782Z,1.73
2019-02-11T21:26:20.570Z,3.40
2019-02-11T21:29:00.978Z,2.40
2019-02-11T21:31:41.673Z,2.70
2019-02-11T21:34:22.326Z,3.70
2019-02-11T21:37:03.605Z,2.83
2019-02-11T21:39:44.123Z,2.33
2019-02-11T21:42:24.728Z,2.30
2019-02-11T21:45:05.778Z,2.37
2019-02-11T21:47:46.183Z,2.90
2019-02-11T21:50:27.173Z,2.10
2019-02-11T21:53:08.126Z,3.10
2019-02-11T21:55:48.960Z,2.13
2019-02-11T21:58:29.266Z,2.30
2019-02-11T22:01:10.179Z,1.83
2019-02-11T22:03:50.580Z,2.90
2019-02-11T22:06:31.354Z,1.90
2019-02-11T22:09:11.935Z,2.10
2019-02-11T22:11:52.814Z,1.93
2019-02-11T22:14:33.831Z,1.77
2019-02-11T22:17:14.466Z,2.03
2019-02-11T22:19:54.937Z,2.40
2019-02-11T22:22:35.593Z,2.03
2019-02-11T22:25:16.444Z,3.00
2019-02-11T22:27:56.855Z,1.90
2019-02-11T22:30:37.595Z,2.63
2019-02-11T22:33:18.175Z,1.90
2019-02-11T22:35:58.826Z,1.97
2019-02-11T22:38:39.582Z,2.60
2019-02-11T22:41:19.996Z,2.37
2019-02-11T22:44:00.756Z,2.00
2019-02-11T22:46:41.340Z,1.63
2019-02-11T22:49:22.537Z,3.50
2019-02-11T22:52:03.020Z,2.90
2019-02-11T22:54:43.692Z,1.40
2019-02-11T22:57:24.930Z,1.57
2019-02-11T23:00:05.648Z,2.60
2019-02-11T23:02:46.879Z,2.57
2019-02-11T23:05:27.606Z,2.13
2019-02-11T23:08:07.914Z,1.77
2019-02-11T23:10:49.122Z,3.77
2019-02-11T23:13:29.697Z,1.97
2019-02-11T23:16:11.015Z,1.40
2019-02-11T23:18:51.446Z,1.87
2019-02-11T23:21:32.198Z,2.67
2019-02-11T23:24:13.538Z,1.63
2019-02-11T23:26:54.419Z,2.50
2019-02-11T23:29:35.607Z,2.83
2019-02-11T23:32:16.769Z,1.40
2019-02-11T23:34:57.562Z,1.60
2019-02-11T23:37:37.878Z,2.10
2019-02-11T23:40:18.650Z,3.20
2019-02-11T23:42:59.970Z,1.63
2019-02-11T23:45:40.912Z,2.10
2019-02-11T23:48:21.514Z,2.30
2019-02-11T23:51:02.139Z,2.20
2019-02-11T23:53:42.483Z,2.27
2019-02-11T23:56:23.107Z,1.53
2019-02-11T23:59:03.503Z,2.67
